Cedarhurst, NY

9:12 AM EDT on July 07, 2015 (GMT -0400)
Valley Stream | | Change Station
CLOSE
Current Station
Personal Weather Station
Location: Valley Stream, NY
Elevation: 12 ft
Nearby Weather Stations

Elev 12 ft 40.65 °N, 73.69 °W | Updated 2 minutes ago

Mostly Cloudy
Mostly Cloudy
79.7 °F
Feels Like 84 °F
N
3.0
Wind Variable Wind from South
Gusts 12.0 mph

Today
High -- | Low -- °F
--% Chance of Precip.
Yesterday
High -- | Low -- °F
Precip. -- in
5:30 AM 8:28 PM
Waning Gibbous, 65% visible
Pressure 30.06 in
Visibility 9.0 miles
Clouds Few 500 ft
Scattered Clouds 1300 ft
Mostly Cloudy 3000 ft
Mostly Cloudy 15000 ft
Heat Index 84 °F
Dew Point 75 °F
Humidity 85%
Rainfall 0.00 in
Snow Depth Not available.
UV 2 out of 12
Pollen 2.50 out of 12
Air Quality Not available.
Flu Activity Not available.
METAR KJFK 071251Z 18011KT 9SM FEW005 SCT013 BKN030 BKN150 27/23 A3006 RMK AO2 SLP178 SCT V BKN T02670228

More Conditions Fewer Conditions

Pressure 30.06 in
Visibility 9.0 miles
Clouds Few 500 ft
Scattered Clouds 1300 ft
Mostly Cloudy 3000 ft
Mostly Cloudy 15000 ft
Heat Index 84 °F
Dew Point 75 °F
Humidity 85%
Rainfall 0.00 in
Snow Depth Not available.
UV 2 out of 12
Pollen 2.50 out of 12
Air Quality Not available.
Flu Activity Not available.
METAR KJFK 071251Z 18011KT 9SM FEW005 SCT013 BKN030 BKN150 27/23 A3006 RMK AO2 SLP178 SCT V BKN T02670228

More Conditions Fewer Conditions

10-Day Weather Forecast

×

Almanac

Astronomy

Jul. 07, 2015 Rise Set
Actual Time
Civil Twilight
Nautical Twilight
Astronomical Twilight
Moon
Length of Visible Light
Length of Day
Tomorrow will be .
, % of the Moon is Illuminated

Today's Extremes

State Highs State Lows

Community

WunderPhotos

Upload Photos

1,835,790 photos uploaded!

WunderBlogs® & News

Nearby

Air Quality

  Air Quality AQ Index Pollutant
Not available.

Snow Depth

Station Depth Elevation

Earthquake Activity

City Distance Mag. Time & Date
Minimum magnitude displayed is 2.5.

Coastal Water Temperatures

Place Temperature

Stations

Nearby Weather Stations

Station Location Temp. Windchill Dew Point Humidity Wind Precip. Elev Updated Type